Time;durP1;ratioP1;P1;durP2;ratioP2;P2;SDS_P1;SDS_P2;PMS_P1;PMS_P2;Temp;Humidity;BMP_temperature;BMP_pressure;BME280_temperature;BME280_humidity;BME280_pressure;Samples;Min_cycle;Max_cycle;Signal;HPM_P1;HPM_P2
2022/06/30 00:00:21;;;;;;;;;;;;;;;22.58;100.00;97607.38;5120180;28;19955;-62
2022/06/30 00:02:49;;;;;;;;;;;;;;;22.44;100.00;97601.53;5122957;28;19923;-63
2022/06/30 00:05:15;;;;;;;;;;;;;;;22.17;100.00;97605.06;5123047;28;19954;-62
2022/06/30 00:07:42;;;;;;;;;;;;;;;22.31;100.00;97610.88;5119629;28;19959;-62
2022/06/30 00:10:10;;;;;;;;;;;;;;;22.10;100.00;97604.06;5119372;28;19975;-61
2022/06/30 00:12:36;;;;;;;;;;;;;;;22.41;100.00;97598.72;5121794;28;19988;-63
2022/06/30 00:15:02;;;;;;;;;;;;;;;22.52;100.00;97597.88;5123015;28;19930;-61
2022/06/30 00:17:29;;;;;;;;;;;;;;;22.82;100.00;97590.13;5120883;28;19963;-62
2022/06/30 00:19:56;;;;;;;;;;;;;;;22.85;100.00;97584.00;5100624;28;19924;-63
2022/06/30 00:22:25;;;;;;;;;;;;;;;23.03;100.00;97579.78;5124155;27;19959;-63
2022/06/30 00:24:51;;;;;;;;;;;;;;;23.19;100.00;97584.44;5122969;28;19930;-63
2022/06/30 00:27:18;;;;;;;;;;;;;;;23.16;100.00;97587.84;5122674;28;19951;-63
2022/06/30 00:29:44;;;;;;;;;;;;;;;23.12;100.00;97576.88;5110556;28;19954;-62
2022/06/30 00:32:11;;;;;;;;;;;;;;;23.23;100.00;97588.84;5110722;28;19987;-63
2022/06/30 00:34:37;;;;;;;;;;;;;;;23.55;100.00;97568.56;5110427;28;19924;-62
2022/06/30 00:37:05;;;;;;;;;;;;;;;23.84;100.00;97574.66;5110572;28;19924;-62
2022/06/30 00:39:31;;;;;;;;;;;;;;;23.79;100.00;97578.47;5110533;28;19924;-63
2022/06/30 00:41:58;;;;;;;;;;;;;;;23.88;100.00;97570.88;5110302;28;19946;-62
2022/06/30 00:44:24;;;;;;;;;;;;;;;23.86;100.00;97569.66;5110279;28;19924;-62
2022/06/30 00:46:51;;;;;;;;;;;;;;;23.62;100.00;97567.94;5110606;28;19924;-63
2022/06/30 00:49:18;;;;;;;;;;;;;;;23.49;100.00;97572.72;5110644;28;19928;-62
2022/06/30 00:51:44;;;;;;;;;;;;;;;23.67;100.00;97566.91;5122744;27;19931;-63
2022/06/30 00:54:12;;;;;;;;;;;;;;;23.78;100.00;97570.63;5118735;28;19959;-63
2022/06/30 00:56:42;;;;;;;;;;;;;;;23.85;100.00;97576.25;5121397;28;19932;-63
2022/06/30 00:59:09;;;;;;;;;;;;;;;23.84;100.00;97580.09;5122341;28;19946;-63
2022/06/30 01:01:37;;;;;;;;;;;;;;;23.99;100.00;97571.88;5119276;28;19927;-63
2022/06/30 01:04:04;;;;;;;;;;;;;;;23.98;100.00;97580.44;5118751;28;19963;-63
2022/06/30 01:06:30;;;;;;;;;;;;;;;23.89;100.00;97590.75;5120002;28;19991;-62
2022/06/30 01:08:57;;;;;;;;;;;;;;;23.72;100.00;97582.97;5122039;28;19923;-62
2022/06/30 01:14:09;;;;;;;;;;;;;;;23.38;100.00;97581.78;5118500;28;19935;-62
2022/06/30 01:16:38;;;;;;;;;;;;;;;23.47;100.00;97587.84;5120794;28;19931;-63
2022/06/30 01:19:04;;;;;;;;;;;;;;;23.21;100.00;97577.47;5121893;28;19924;-63
2022/06/30 01:21:32;;;;;;;;;;;;;;;22.72;100.00;97581.69;5124153;27;19924;-63
2022/06/30 01:23:58;;;;;;;;;;;;;;;22.53;100.00;97585.06;5118207;28;19935;-61
2022/06/30 01:26:27;;;;;;;;;;;;;;;22.48;100.00;97591.56;5119061;28;19924;-62
2022/06/30 01:28:53;;;;;;;;;;;;;;;22.46;100.00;97588.41;5121931;28;20029;-62
2022/06/30 01:31:20;;;;;;;;;;;;;;;22.29;100.00;97585.97;5121390;28;19959;-63
2022/06/30 01:33:46;;;;;;;;;;;;;;;22.22;100.00;97596.63;5117415;28;19959;-62
2022/06/30 01:36:12;;;;;;;;;;;;;;;21.93;100.00;97578.75;5117957;28;19928;-62
2022/06/30 01:38:40;;;;;;;;;;;;;;;21.91;100.00;97583.72;5120764;28;19966;-62
2022/06/30 01:41:07;;;;;;;;;;;;;;;21.98;100.00;97588.56;5121445;28;19931;-62
2022/06/30 01:43:33;;;;;;;;;;;;;;;22.09;100.00;97584.25;5119168;28;19924;-63
2022/06/30 01:46:00;;;;;;;;;;;;;;;22.12;100.00;97578.13;5117738;28;20622;-62
2022/06/30 01:48:26;;;;;;;;;;;;;;;22.33;100.00;97586.06;5119003;28;19925;-63
2022/06/30 01:50:53;;;;;;;;;;;;;;;22.19;100.00;97585.69;5125589;28;19927;-63
2022/06/30 01:53:19;;;;;;;;;;;;;;;22.20;100.00;97579.88;5121212;28;19924;-62
2022/06/30 01:55:47;;;;;;;;;;;;;;;22.01;100.00;97585.16;5117840;28;19932;-62
2022/06/30 01:58:13;;;;;;;;;;;;;;;21.83;100.00;97579.19;5118202;28;19934;-61
2022/06/30 02:00:40;;;;;;;;;;;;;;;21.99;100.00;97584.72;5120914;28;20210;-63
2022/06/30 02:03:06;;;;;;;;;;;;;;;22.33;100.00;97592.31;5121570;28;20022;-62
2022/06/30 02:05:32;;;;;;;;;;;;;;;22.35;100.00;97586.50;5119417;28;19924;-63
2022/06/30 02:07:59;;;;;;;;;;;;;;;22.21;100.00;97592.34;5117670;28;19970;-62
2022/06/30 02:10:25;;;;;;;;;;;;;;;22.18;100.00;97586.81;5118916;28;19924;-62
2022/06/30 02:12:53;;;;;;;;;;;;;;;22.06;100.00;97591.13;5121341;28;19924;-62
2022/06/30 02:15:21;;;;;;;;;;;;;;;22.14;100.00;97592.16;5121236;28;20312;-63
2022/06/30 02:17:48;;;;;;;;;;;;;;;22.31;100.00;97585.63;5117739;28;19959;-63
2022/06/30 02:20:18;;;;;;;;;;;;;;;22.17;100.00;97596.09;5121067;28;19967;-62
2022/06/30 02:22:44;;;;;;;;;;;;;;;22.20;100.00;97585.31;5117720;28;19943;-63
2022/06/30 02:25:11;;;;;;;;;;;;;;;22.22;100.00;97582.28;5117779;28;19974;-62
2022/06/30 02:27:37;;;;;;;;;;;;;;;22.28;100.00;97586.31;5120271;28;20003;-62
2022/06/30 02:30:06;;;;;;;;;;;;;;;22.04;100.00;97579.81;5121560;28;19923;-62
2022/06/30 02:32:33;;;;;;;;;;;;;;;22.04;100.00;97579.03;5100916;28;19935;-62
2022/06/30 02:34:59;;;;;;;;;;;;;;;22.43;100.00;97577.41;5117937;28;19924;-62
2022/06/30 02:37:26;;;;;;;;;;;;;;;22.34;100.00;97585.72;5100753;28;19955;-62
2022/06/30 02:39:52;;;;;;;;;;;;;;;22.17;100.00;97585.22;5121358;28;19924;-61
2022/06/30 02:42:19;;;;;;;;;;;;;;;21.89;100.00;97588.72;5121370;28;19983;-62
2022/06/30 02:44:45;;;;;;;;;;;;;;;21.89;100.00;97591.44;5110176;28;19950;-62
2022/06/30 02:47:13;;;;;;;;;;;;;;;21.74;100.00;97600.28;5113314;28;19946;-62
2022/06/30 02:49:39;;;;;;;;;;;;;;;21.66;100.00;97595.78;5112637;28;19967;-62
2022/06/30 02:52:06;;;;;;;;;;;;;;;21.46;100.00;97604.84;5125387;27;19924;-61
2022/06/30 02:54:33;;;;;;;;;;;;;;;21.32;100.00;97605.16;5122984;28;19964;-63
2022/06/30 02:56:59;;;;;;;;;;;;;;;21.28;100.00;97607.00;5124753;28;19924;-62
2022/06/30 02:59:25;;;;;;;;;;;;;;;21.41;100.00;97597.72;5123506;28;20427;-62
2022/06/30 03:01:52;;;;;;;;;;;;;;;21.30;100.00;97593.84;5120850;28;19935;-62
2022/06/30 03:04:21;;;;;;;;;;;;;;;21.25;100.00;97594.09;5121129;28;19928;-62
2022/06/30 03:06:47;;;;;;;;;;;;;;;21.24;100.00;97597.94;5111932;28;19950;-61
2022/06/30 03:09:14;;;;;;;;;;;;;;;21.42;100.00;97599.28;5112175;28;19924;-62
2022/06/30 03:11:40;;;;;;;;;;;;;;;21.67;100.00;97599.25;5112110;28;19924;-63
2022/06/30 03:14:07;;;;;;;;;;;;;;;22.06;100.00;97595.81;5112267;28;20030;-62
2022/06/30 03:16:33;;;;;;;;;;;;;;;22.00;100.00;97597.19;5111783;28;19992;-63
2022/06/30 03:18:59;;;;;;;;;;;;;;;21.72;100.00;97604.47;5111789;28;20434;-62
2022/06/30 03:21:27;;;;;;;;;;;;;;;21.70;100.00;97606.72;5125053;27;19924;-62
2022/06/30 03:23:53;;;;;;;;;;;;;;;21.36;100.00;97606.09;5120540;28;19928;-62
2022/06/30 03:26:20;;;;;;;;;;;;;;;21.05;100.00;97613.97;5120639;28;19989;-62
2022/06/30 03:28:46;;;;;;;;;;;;;;;20.83;100.00;97617.88;5123755;28;20180;-62
2022/06/30 03:31:12;;;;;;;;;;;;;;;20.74;100.00;97614.47;5123947;28;20007;-63
2022/06/30 03:33:39;;;;;;;;;;;;;;;21.09;100.00;97622.25;5120869;28;19955;-62
2022/06/30 03:36:05;;;;;;;;;;;;;;;21.86;100.00;97619.28;5120236;28;19939;-62
2022/06/30 03:38:33;;;;;;;;;;;;;;;22.38;100.00;97616.53;5121719;28;19963;-62
2022/06/30 03:40:59;;;;;;;;;;;;;;;22.28;100.00;97611.56;5123775;28;19951;-62
2022/06/30 03:43:26;;;;;;;;;;;;;;;21.93;100.00;97619.53;5122486;28;19924;-62
2022/06/30 03:45:52;;;;;;;;;;;;;;;21.67;100.00;97618.28;5119823;28;20348;-62
2022/06/30 03:48:18;;;;;;;;;;;;;;;21.50;100.00;97614.69;5120100;28;19989;-62
2022/06/30 03:50:45;;;;;;;;;;;;;;;21.27;100.00;97620.91;5119529;27;19924;-62
2022/06/30 03:53:11;;;;;;;;;;;;;;;21.11;100.00;97620.78;5123363;28;19999;-62
2022/06/30 03:55:39;;;;;;;;;;;;;;;20.94;100.00;97626.41;5120373;28;19963;-62
2022/06/30 03:58:06;;;;;;;;;;;;;;;20.97;100.00;97631.16;5119944;28;19950;-63
2022/06/30 04:00:33;;;;;;;;;;;;;;;20.86;100.00;97619.13;5121747;28;19924;-62
2022/06/30 04:02:59;;;;;;;;;;;;;;;20.96;100.00;97634.97;5123485;28;19983;-62
2022/06/30 04:05:25;;;;;;;;;;;;;;;21.31;100.00;97629.97;5122393;28;19959;-62
2022/06/30 04:07:52;;;;;;;;;;;;;;;21.53;100.00;97624.88;5119678;28;19928;-62
2022/06/30 04:10:18;;;;;;;;;;;;;;;21.48;100.00;97629.72;5119573;28;19924;-62
2022/06/30 04:12:46;;;;;;;;;;;;;;;21.55;100.00;97629.97;5111042;28;19931;-62
2022/06/30 04:15:12;;;;;;;;;;;;;;;21.92;100.00;97622.56;5111304;28;19924;-63
2022/06/30 04:17:39;;;;;;;;;;;;;;;22.02;100.00;97624.81;5111079;28;20038;-62
2022/06/30 04:20:15;;;;;;;;;;;;;;;22.09;100.00;97633.19;5111534;28;19924;-62
2022/06/30 04:22:42;;;;;;;;;;;;;;;22.25;100.00;97635.97;5123025;27;19927;-63
2022/06/30 04:25:09;;;;;;;;;;;;;;;22.17;100.00;97636.91;5123146;28;19927;-62
2022/06/30 04:27:35;;;;;;;;;;;;;;;22.29;100.00;97639.56;5120421;28;19927;-62
2022/06/30 04:30:03;;;;;;;;;;;;;;;22.67;100.00;97633.69;5119226;28;19974;-61
2022/06/30 04:32:37;;;;;;;;;;;;;;;22.83;100.00;97642.66;5120759;28;19971;-62
2022/06/30 04:35:04;;;;;;;;;;;;;;;22.34;100.00;97636.63;5122906;28;19923;-62
2022/06/30 04:37:31;;;;;;;;;;;;;;;21.81;100.00;97640.47;5121101;28;19959;-62
2022/06/30 04:42:37;;;;;;;;;;;;;;;21.23;100.00;97661.53;5120687;28;19924;-62
2022/06/30 04:45:06;;;;;;;;;;;;;;;21.44;100.00;97658.72;5122736;28;19946;-61
2022/06/30 04:47:32;;;;;;;;;;;;;;;21.60;100.00;97648.75;5120744;28;19924;-62
2022/06/30 04:49:58;;;;;;;;;;;;;;;21.40;100.00;97661.31;5119040;28;19927;-62
2022/06/30 04:52:25;;;;;;;;;;;;;;;21.42;100.00;97650.91;5124248;27;19928;-62
2022/06/30 04:54:51;;;;;;;;;;;;;;;21.11;100.00;97649.84;5122465;28;19928;-62
2022/06/30 04:57:17;;;;;;;;;;;;;;;20.87;100.00;97645.16;5122143;28;19924;-62
2022/06/30 04:59:44;;;;;;;;;;;;;;;20.76;100.00;97646.72;5118399;28;20016;-62
2022/06/30 05:02:11;;;;;;;;;;;;;;;20.79;100.00;97648.75;5118798;28;19932;-62
2022/06/30 05:04:38;;;;;;;;;;;;;;;20.91;100.00;97644.16;5121436;28;19924;-62
2022/06/30 05:07:05;;;;;;;;;;;;;;;20.84;100.00;97641.19;5121377;28;19924;-62
2022/06/30 05:09:31;;;;;;;;;;;;;;;20.92;100.00;97639.53;5120276;28;19957;-62
2022/06/30 05:11:57;;;;;;;;;;;;;;;20.76;100.00;97639.38;5118560;28;19928;-62
2022/06/30 05:14:24;;;;;;;;;;;;;;;20.75;100.00;97632.34;5119334;28;20381;-63
2022/06/30 05:16:50;;;;;;;;;;;;;;;20.77;100.00;97635.50;5122008;28;19946;-62
2022/06/30 05:19:18;;;;;;;;;;;;;;;20.88;100.00;97633.16;5121785;28;19962;-62
2022/06/30 05:21:44;;;;;;;;;;;;;;;20.74;100.00;97640.81;5122271;27;20014;-62
2022/06/30 05:26:54;;;;;;;;;;;;;;;21.06;100.00;97633.75;5118188;28;19935;-62
2022/06/30 05:29:21;;;;;;;;;;;;;;;21.05;100.00;97635.69;5118500;28;20278;-61
2022/06/30 05:31:47;;;;;;;;;;;;;;;21.10;100.00;97638.22;5121465;28;19958;-62
2022/06/30 05:34:14;;;;;;;;;;;;;;;21.20;100.00;97645.91;5121495;28;19958;-62
2022/06/30 05:36:41;;;;;;;;;;;;;;;21.71;100.00;97638.22;5118389;28;20023;-61
2022/06/30 05:39:08;;;;;;;;;;;;;;;21.73;100.00;97639.44;5118105;28;19964;-62
2022/06/30 05:41:34;;;;;;;;;;;;;;;21.19;100.00;97638.09;5119878;28;19964;-62
2022/06/30 05:44:00;;;;;;;;;;;;;;;21.11;100.00;97631.63;5121261;28;19924;-61
2022/06/30 05:46:27;;;;;;;;;;;;;;;21.23;100.00;97637.09;5119859;28;19959;-62
2022/06/30 05:48:53;;;;;;;;;;;;;;;21.66;100.00;97635.75;5099565;28;19965;-62
2022/06/30 05:51:19;;;;;;;;;;;;;;;21.77;100.00;97634.94;5128574;28;19924;-63
2022/06/30 05:53:47;;;;;;;;;;;;;;;21.82;100.00;97642.03;5117723;28;19970;-62
2022/06/30 05:56:13;;;;;;;;;;;;;;;21.91;100.00;97640.03;5117438;28;19983;-63
2022/06/30 05:58:40;;;;;;;;;;;;;;;22.10;100.00;97637.47;5120445;28;19934;-62
2022/06/30 06:01:06;;;;;;;;;;;;;;;21.92;100.00;97639.69;5121060;28;20094;-62
2022/06/30 06:03:32;;;;;;;;;;;;;;;21.48;100.00;97652.25;5119131;28;20377;-63
2022/06/30 06:05:59;;;;;;;;;;;;;;;21.22;100.00;97653.72;5117625;28;19971;-62
2022/06/30 06:08:25;;;;;;;;;;;;;;;21.49;100.00;97656.56;5118017;28;19930;-62
2022/06/30 06:10:53;;;;;;;;;;;;;;;22.10;100.00;97651.06;5120604;28;19928;-62
2022/06/30 06:13:19;;;;;;;;;;;;;;;22.30;100.00;97647.41;5121135;28;19924;-61
2022/06/30 06:15:46;;;;;;;;;;;;;;;22.17;100.00;97659.47;5117665;28;19963;-62
2022/06/30 06:18:12;;;;;;;;;;;;;;;21.41;100.00;97665.63;5117757;28;19954;-61
2022/06/30 06:20:39;;;;;;;;;;;;;;;21.04;100.00;97663.97;5128766;27;20017;-63
2022/06/30 06:23:05;;;;;;;;;;;;;;;21.23;100.00;97672.38;5125107;28;19963;-62
2022/06/30 06:25:32;;;;;;;;;;;;;;;21.09;100.00;97668.41;5123233;28;19945;-62
2022/06/30 06:30:43;;;;;;;;;;;;;;;21.18;100.00;97664.47;5124642;28;19923;-62
2022/06/30 06:33:10;;;;;;;;;;;;;;;21.08;100.00;97659.44;5124798;28;19954;-63
2022/06/30 06:35:36;;;;;;;;;;;;;;;20.73;100.00;97666.38;5121753;28;19930;-62
2022/06/30 06:38:03;;;;;;;;;;;;;;;20.92;100.00;97651.16;5121004;28;19962;-63
2022/06/30 06:40:29;;;;;;;;;;;;;;;21.21;100.00;97655.66;5122406;28;19935;-62
2022/06/30 06:42:56;;;;;;;;;;;;;;;21.33;100.00;97655.66;5124417;28;19924;-62
2022/06/30 06:45:23;;;;;;;;;;;;;;;21.38;100.00;97655.44;5124081;28;19928;-63
2022/06/30 06:47:50;;;;;;;;;;;;;;;20.95;100.00;97655.13;5120541;28;19956;-61
2022/06/30 06:50:16;;;;;;;;;;;;;;;20.70;100.00;97669.75;5124498;27;20552;-62
2022/06/30 06:52:42;;;;;;;;;;;;;;;20.76;100.00;97668.41;5124471;27;20022;-62
2022/06/30 06:55:09;;;;;;;;;;;;;;;20.69;100.00;97663.53;5106019;28;19951;-62
2022/06/30 06:57:36;;;;;;;;;;;;;;;20.59;100.00;97663.94;5121695;28;20045;-63
2022/06/30 07:00:04;;;;;;;;;;;;;;;20.73;100.00;97663.66;5120365;28;19935;-63
2022/06/30 07:02:32;;;;;;;;;;;;;;;20.88;100.00;97661.13;5122071;28;19924;-62
2022/06/30 07:04:58;;;;;;;;;;;;;;;20.99;100.00;97662.25;5123835;28;19923;-62
2022/06/30 07:07:24;;;;;;;;;;;;;;;20.93;100.00;97662.81;5122953;28;19987;-62
2022/06/30 07:09:51;;;;;;;;;;;;;;;20.94;100.00;97664.41;5120122;28;19924;-62
2022/06/30 07:12:17;;;;;;;;;;;;;;;21.06;100.00;97656.28;5120467;28;19943;-63
2022/06/30 07:14:43;;;;;;;;;;;;;;;21.23;100.00;97666.19;5123522;28;20304;-63
2022/06/30 07:17:10;;;;;;;;;;;;;;;21.18;100.00;97653.59;5123954;28;20151;-63
2022/06/30 07:19:38;;;;;;;;;;;;;;;21.42;100.00;97653.63;5121122;28;19935;-62
2022/06/30 07:22:05;;;;;;;;;;;;;;;21.74;100.00;97648.41;5124914;27;19925;-62
2022/06/30 07:24:31;;;;;;;;;;;;;;;22.30;100.00;97639.25;5121699;28;19956;-62
2022/06/30 07:26:57;;;;;;;;;;;;;;;22.26;100.00;97641.06;5123535;28;20447;-62
2022/06/30 07:29:24;;;;;;;;;;;;;;;22.35;100.00;97636.28;5123018;28;19924;-63
2022/06/30 07:31:51;;;;;;;;;;;;;;;22.23;100.00;97635.53;5119023;28;19924;-62
2022/06/30 07:34:17;;;;;;;;;;;;;;;21.93;100.00;97633.13;5119933;28;20244;-62
2022/06/30 07:36:45;;;;;;;;;;;;;;;21.91;100.00;97632.66;5123179;28;19930;-63
2022/06/30 07:39:11;;;;;;;;;;;;;;;21.78;100.00;97627.56;5123512;28;19931;-62
2022/06/30 07:41:38;;;;;;;;;;;;;;;21.64;100.00;97622.47;5120364;28;19995;-63
2022/06/30 07:44:04;;;;;;;;;;;;;;;21.88;100.00;97625.19;5119789;28;19930;-63
2022/06/30 07:46:31;;;;;;;;;;;;;;;21.94;100.00;97626.53;5121329;28;19960;-63
2022/06/30 07:48:57;;;;;;;;;;;;;;;21.94;100.00;97612.94;5123087;28;19939;-62
2022/06/30 07:51:24;;;;;;;;;;;;;;;22.20;100.00;97607.09;5127135;27;19988;-63
2022/06/30 07:53:51;;;;;;;;;;;;;;;22.21;100.00;97597.00;5119953;28;19924;-61
2022/06/30 07:56:18;;;;;;;;;;;;;;;22.38;100.00;97596.69;5119923;28;19963;-62
2022/06/30 07:58:44;;;;;;;;;;;;;;;22.34;100.00;97602.06;5122923;28;19923;-62
2022/06/30 08:01:11;;;;;;;;;;;;;;;22.42;100.00;97603.03;5123181;28;19924;-62
2022/06/30 08:03:38;;;;;;;;;;;;;;;22.27;100.00;97601.84;5120591;28;19995;-62
2022/06/30 08:06:05;;;;;;;;;;;;;;;22.54;100.00;97594.81;5119321;28;19928;-63
2022/06/30 08:08:33;;;;;;;;;;;;;;;22.94;100.00;97592.00;5121013;28;19951;-62
2022/06/30 08:11:00;;;;;;;;;;;;;;;22.90;100.00;97593.84;5123243;28;19983;-62
2022/06/30 08:13:27;;;;;;;;;;;;;;;22.64;100.00;97594.31;5121767;28;19924;-62
2022/06/30 08:15:53;;;;;;;;;;;;;;;23.12;100.00;97587.75;5119267;28;19929;-61
2022/06/30 08:18:19;;;;;;;;;;;;;;;23.39;100.00;97589.63;5119437;28;20023;-62
2022/06/30 08:20:46;;;;;;;;;;;;;;;23.20;100.00;97586.81;5124926;27;19924;-62
2022/06/30 08:23:12;;;;;;;;;;;;;;;23.20;100.00;97596.91;5122650;28;20132;-63
2022/06/30 08:25:39;;;;;;;;;;;;;;;23.90;100.00;97595.84;5119907;28;19979;-62
2022/06/30 08:28:08;;;;;;;;;;;;;;;23.35;100.00;97596.91;5119202;28;19963;-65
2022/06/30 08:30:34;;;;;;;;;;;;;;;23.23;100.00;97594.28;5120849;28;19928;-63
2022/06/30 08:33:01;;;;;;;;;;;;;;;23.43;100.00;97595.16;5122412;28;19924;-63
2022/06/30 08:35:27;;;;;;;;;;;;;;;23.33;100.00;97590.22;5121415;28;19920;-64
2022/06/30 08:37:54;;;;;;;;;;;;;;;23.19;100.00;97598.03;5118664;28;19928;-63
2022/06/30 08:43:08;;;;;;;;;;;;;;;23.66;100.00;97590.63;5122284;28;19946;-63
2022/06/30 08:45:35;;;;;;;;;;;;;;;24.02;100.00;97592.19;5120061;28;19979;-63
2022/06/30 08:48:02;;;;;;;;;;;;;;;24.30;100.00;97592.78;5118713;28;19977;-62
2022/06/30 08:50:28;;;;;;;;;;;;;;;24.17;100.00;97572.25;5124253;27;19947;-62
2022/06/30 08:52:56;;;;;;;;;;;;;;;23.96;100.00;97574.53;5121984;28;19934;-63
2022/06/30 08:55:24;;;;;;;;;;;;;;;23.86;100.00;97573.16;5121739;28;20025;-63
2022/06/30 08:57:52;;;;;;;;;;;;;;;24.16;100.00;97567.97;5118374;28;19949;-63
2022/06/30 09:00:20;;;;;;;;;;;;;;;24.41;100.00;97573.91;5118331;28;20447;-63
2022/06/30 09:02:47;;;;;;;;;;;;;;;24.64;100.00;97570.06;5109957;28;19924;-63
2022/06/30 09:05:14;;;;;;;;;;;;;;;25.11;100.00;97558.78;5109851;28;19954;-62
2022/06/30 09:07:40;;;;;;;;;;;;;;;25.19;100.00;97567.91;5109533;28;19932;-63
2022/06/30 09:10:07;;;;;;;;;;;;;;;25.07;100.00;97565.34;5109636;28;20030;-63
2022/06/30 09:12:36;;;;;;;;;;;;;;;24.72;100.00;97576.44;5109025;28;20649;-63
2022/06/30 09:15:03;;;;;;;;;;;;;;;24.37;100.00;97571.09;5109841;28;19924;-62
2022/06/30 09:17:31;;;;;;;;;;;;;;;24.63;100.00;97576.66;5109506;28;19959;-62
2022/06/30 09:19:58;;;;;;;;;;;;;;;24.56;100.00;97575.75;5109465;28;19971;-63
2022/06/30 09:22:26;;;;;;;;;;;;;;;24.82;100.00;97575.09;5123549;27;19991;-63
2022/06/30 09:24:56;;;;;;;;;;;;;;;25.04;100.00;97574.28;5121629;28;20066;-62
2022/06/30 09:27:24;;;;;;;;;;;;;;;24.73;100.00;97569.03;5120925;28;19924;-62
2022/06/30 09:29:52;;;;;;;;;;;;;;;24.66;100.00;97570.47;5118012;28;19943;-62
2022/06/30 09:32:19;;;;;;;;;;;;;;;24.50;100.00;97574.47;5118246;28;19946;-67
2022/06/30 09:34:47;;;;;;;;;;;;;;;25.05;100.00;97556.72;5109700;28;19924;-62
2022/06/30 09:37:18;;;;;;;;;;;;;;;25.97;100.00;97566.28;5109769;28;19952;-63
2022/06/30 09:39:45;;;;;;;;;;;;;;;26.01;100.00;97558.94;5109427;28;19928;-62
2022/06/30 09:42:11;;;;;;;;;;;;;;;25.70;100.00;97560.88;5109080;28;19935;-63
2022/06/30 09:44:38;;;;;;;;;;;;;;;25.85;100.00;97561.06;5109181;28;19924;-63
2022/06/30 09:47:06;;;;;;;;;;;;;;;26.00;100.00;97552.66;5109553;28;19928;-62
2022/06/30 09:49:33;;;;;;;;;;;;;;;25.99;100.00;97558.53;5109571;28;19983;-63
2022/06/30 09:52:02;;;;;;;;;;;;;;;26.03;100.00;97546.44;5122235;28;19955;-62
2022/06/30 09:54:31;;;;;;;;;;;;;;;25.91;100.00;97548.63;5121027;28;19924;-63
2022/06/30 09:57:01;;;;;;;;;;;;;;;25.92;100.00;97555.69;5125578;28;19924;-62
2022/06/30 09:59:27;;;;;;;;;;;;;;;25.82;100.00;97539.91;5124373;28;20012;-62
2022/06/30 10:01:55;;;;;;;;;;;;;;;26.18;100.00;97550.19;5121914;28;19924;-62
2022/06/30 10:04:22;;;;;;;;;;;;;;;26.34;100.00;97545.28;5121951;28;19924;-62
2022/06/30 10:06:48;;;;;;;;;;;;;;;26.37;100.00;97543.75;5125065;28;19930;-62
2022/06/30 10:09:17;;;;;;;;;;;;;;;26.54;100.00;97549.41;5125210;28;19967;-63
2022/06/30 10:11:44;;;;;;;;;;;;;;;26.34;100.00;97542.53;5121736;28;19928;-63
2022/06/30 10:14:11;;;;;;;;;;;;;;;26.55;100.00;97539.25;5121733;28;19927;-62
2022/06/30 10:16:39;;;;;;;;;;;;;;;26.29;100.00;97538.19;5124250;28;19930;-63
2022/06/30 10:19:05;;;;;;;;;;;;;;;26.49;100.00;97536.03;5125055;28;19983;-64
2022/06/30 10:21:32;;;;;;;;;;;;;;;26.70;100.00;97539.00;5127867;27;19931;-62
2022/06/30 10:23:59;;;;;;;;;;;;;;;26.83;100.00;97538.75;5121458;28;20000;-63
2022/06/30 10:29:12;;;;;;;;;;;;;;;26.87;100.00;97523.13;5124712;28;19946;-62
2022/06/30 10:31:40;;;;;;;;;;;;;;;26.74;100.00;97528.06;5122137;28;19924;-62
2022/06/30 10:34:10;;;;;;;;;;;;;;;26.83;100.00;97522.31;5121474;28;20319;-64
2022/06/30 10:36:40;;;;;;;;;;;;;;;26.70;100.00;97525.31;5123524;28;20006;-62
2022/06/30 10:39:11;;;;;;;;;;;;;;;26.79;100.00;97517.56;5124697;28;19924;-62
2022/06/30 10:41:45;;;;;;;;;;;;;;;26.79;100.00;97517.56;5121972;28;19934;-63
2022/06/30 10:44:16;;;;;;;;;;;;;;;26.79;100.00;97512.09;5121204;28;19944;-63
2022/06/30 10:47:10;;;;;;;;;;;;;;;26.87;100.00;97515.69;5124253;28;20004;-62
2022/06/30 10:49:51;;;;;;;;;;;;;;;26.83;100.00;97514.09;5096959;28;19930;-62
2022/06/30 10:52:25;;;;;;;;;;;;;;;26.67;100.00;97512.38;5122869;27;19935;-63
2022/06/30 10:54:59;;;;;;;;;;;;;;;26.83;100.00;97512.91;5120726;28;19924;-63
2022/06/30 10:57:27;;;;;;;;;;;;;;;27.10;100.00;97504.53;5121436;28;19928;-62
2022/06/30 10:59:53;;;;;;;;;;;;;;;27.18;100.00;97517.09;5124252;28;19935;-62
2022/06/30 11:02:21;;;;;;;;;;;;;;;27.16;100.00;97497.50;5123922;28;19924;-61
2022/06/30 11:04:48;;;;;;;;;;;;;;;27.25;100.00;97497.97;5111495;28;19924;-62
2022/06/30 11:07:18;;;;;;;;;;;;;;;27.20;100.00;97501.84;5111149;28;20575;-63
2022/06/30 11:10:05;;;;;;;;;;;;;;;27.32;100.00;97500.75;5111837;28;20000;-62
2022/06/30 11:12:51;;;;;;;;;;;;;;;27.32;100.00;97489.78;5111982;28;19931;-62
2022/06/30 11:15:18;;;;;;;;;;;;;;;27.23;100.00;97500.31;5111884;28;19959;-63
2022/06/30 11:17:45;;;;;;;;;;;;;;;27.28;100.00;97494.47;5112137;28;19967;-62
2022/06/30 11:20:14;;;;;;;;;;;;;;;27.46;100.00;97489.91;5114605;27;19996;-63
2022/06/30 11:22:40;;;;;;;;;;;;;;;27.60;100.00;97487.25;5124599;27;19954;-62
2022/06/30 11:25:08;;;;;;;;;;;;;;;27.68;100.00;97474.34;5123861;28;19945;-62
2022/06/30 11:27:36;;;;;;;;;;;;;;;27.78;100.00;97481.84;5121615;28;19928;-62
2022/06/30 11:30:04;;;;;;;;;;;;;;;27.86;99.62;97489.69;5120137;28;19999;-62
2022/06/30 11:32:32;;;;;;;;;;;;;;;27.79;96.11;97481.44;5121552;28;19924;-62
2022/06/30 11:34:59;;;;;;;;;;;;;;;27.82;97.65;97480.66;5123597;28;19927;-63
2022/06/30 11:37:27;;;;;;;;;;;;;;;27.98;100.00;97483.06;5104548;28;19934;-62
2022/06/30 11:39:56;;;;;;;;;;;;;;;28.07;100.00;97469.78;5120026;28;20010;-63
2022/06/30 11:42:23;;;;;;;;;;;;;;;27.88;100.00;97473.63;5120376;28;19931;-62
2022/06/30 11:44:50;;;;;;;;;;;;;;;27.84;100.00;97472.84;5123841;28;19939;-62
2022/06/30 11:47:17;;;;;;;;;;;;;;;27.81;99.98;97470.09;5123502;28;20128;-62
2022/06/30 11:49:45;;;;;;;;;;;;;;;27.80;98.51;97472.03;5119840;28;19924;-63
2022/06/30 11:52:15;;;;;;;;;;;;;;;27.97;100.00;97462.31;5124570;27;19952;-63
2022/06/30 11:54:42;;;;;;;;;;;;;;;27.90;100.00;97456.78;5122606;28;19991;-62
2022/06/30 11:57:09;;;;;;;;;;;;;;;28.03;100.00;97451.72;5123352;28;20018;-63
2022/06/30 11:59:36;;;;;;;;;;;;;;;28.22;95.63;97465.16;5120798;28;19966;-62
2022/06/30 12:02:07;;;;;;;;;;;;;;;28.20;94.53;97442.75;5119405;28;19928;-62
2022/06/30 12:04:34;;;;;;;;;;;;;;;27.99;99.11;97439.94;5121334;28;19984;-63
2022/06/30 12:07:03;;;;;;;;;;;;;;;28.02;100.00;97437.22;5122803;28;20014;-63
2022/06/30 12:09:29;;;;;;;;;;;;;;;28.22;98.54;97440.44;5121291;28;19955;-62
2022/06/30 12:11:57;;;;;;;;;;;;;;;28.34;90.98;97454.56;5119445;28;19931;-62
2022/06/30 12:14:24;;;;;;;;;;;;;;;28.30;93.52;97445.53;5119617;28;19924;-63
2022/06/30 12:16:55;;;;;;;;;;;;;;;28.36;91.07;97432.19;5122246;28;19924;-63
2022/06/30 12:19:21;;;;;;;;;;;;;;;28.47;89.92;97438.50;5122485;28;19970;-63
2022/06/30 12:21:48;;;;;;;;;;;;;;;28.53;91.07;97433.41;5123777;27;19956;-62
2022/06/30 12:24:16;;;;;;;;;;;;;;;28.40;92.30;97439.28;5119000;28;19925;-64
2022/06/30 12:26:48;;;;;;;;;;;;;;;28.37;93.21;97439.28;5121766;28;19979;-63
2022/06/30 12:29:15;;;;;;;;;;;;;;;28.61;89.65;97441.25;5122180;28;19959;-63
2022/06/30 12:31:41;;;;;;;;;;;;;;;28.72;86.49;97438.53;5119166;28;19969;-63
2022/06/30 12:34:08;;;;;;;;;;;;;;;28.65;85.58;97430.28;5118471;28;19932;-63
2022/06/30 12:36:35;;;;;;;;;;;;;;;28.53;81.38;97434.19;5120218;28;19962;-63
2022/06/30 12:39:11;;;;;;;;;;;;;;;28.36;84.07;97426.72;5122077;28;19995;-62
2022/06/30 12:41:39;;;;;;;;;;;;;;;28.45;85.06;97434.56;5119653;28;19924;-64
2022/06/30 12:44:05;;;;;;;;;;;;;;;28.65;83.02;97424.78;5118694;28;19928;-62
2022/06/30 12:46:38;;;;;;;;;;;;;;;28.46;86.19;97419.66;5120126;28;20393;-63
2022/06/30 12:49:04;;;;;;;;;;;;;;;28.76;83.83;97428.31;5122139;28;19924;-62
2022/06/30 12:51:40;;;;;;;;;;;;;;;28.67;84.24;97425.19;5125526;27;19966;-63
2022/06/30 12:54:07;;;;;;;;;;;;;;;28.92;78.50;97420.44;5118579;28;19928;-63